<?xml version="1.0" encoding="UTF-8" standalone="no" ?>
<gpx xmlns="http://www.topografix.com/GPX/1/1" xmlns:xsi="http://www.w3.org/2001/XMLSchema-instance" xsi:schemaLocation="http://www.topografix.com/GPX/1/1 http://www.topografix.com/GPX/1/1/gpx.xsd" version="1.1" creator="VisuGPX - https://www.visugpx.com">
  <metadata>
    <name>Enchenberg - Lambach - Sierthal : Tour des lacs</name>
  </metadata>
  <trk>
    <name><![CDATA[Enchenberg - Lambach - Sierthal : Tour des lacs - 18040 - UtagawaVTT.com]]></name>
    <trkseg>
      <trkpt lat="49.01028" lon="7.33849">
        <ele>379.700012</ele>
        <time>2018-05-03T22:44:54Z</time>
      </trkpt>
      <trkpt lat="49.01237" lon="7.33872">
        <ele>370.070007</ele>
        <time>2018-05-03T22:45:54Z</time>
      </trkpt>
      <trkpt lat="49.01278" lon="7.3391">
        <ele>369</ele>
        <time>2018-05-03T22:46:54Z</time>
      </trkpt>
      <trkpt lat="49.01331" lon="7.33946">
        <ele>367.725311</ele>
        <time>2018-05-03T22:47:54Z</time>
      </trkpt>
      <trkpt lat="49.01418" lon="7.33854">
        <ele>368.585541</ele>
        <time>2018-05-03T22:48:54Z</time>
      </trkpt>
      <trkpt lat="49.01514" lon="7.33755">
        <ele>372.766022</ele>
        <time>2018-05-03T22:49:54Z</time>
      </trkpt>
      <trkpt lat="49.0158" lon="7.33727">
        <ele>373</ele>
        <time>2018-05-03T22:50:54Z</time>
      </trkpt>
      <trkpt lat="49.01609" lon="7.33834">
        <ele>368.46109</ele>
        <time>2018-05-03T22:51:54Z</time>
      </trkpt>
      <trkpt lat="49.01718" lon="7.33839">
        <ele>365.523499</ele>
        <time>2018-05-03T22:52:54Z</time>
      </trkpt>
      <trkpt lat="49.01817" lon="7.33906">
        <ele>352.38205</ele>
        <time>2018-05-03T22:53:54Z</time>
      </trkpt>
      <trkpt lat="49.01864" lon="7.33976">
        <ele>342.887207</ele>
        <time>2018-05-03T22:54:54Z</time>
      </trkpt>
      <trkpt lat="49.01918" lon="7.34167">
        <ele>296.40097</ele>
        <time>2018-05-03T22:55:54Z</time>
      </trkpt>
      <trkpt lat="49.01945" lon="7.34236">
        <ele>289.234314</ele>
        <time>2018-05-03T22:56:54Z</time>
      </trkpt>
      <trkpt lat="49.01943" lon="7.34286">
        <ele>286.576721</ele>
        <time>2018-05-03T22:57:54Z</time>
      </trkpt>
      <trkpt lat="49.01973" lon="7.34337">
        <ele>286.995972</ele>
        <time>2018-05-03T22:58:54Z</time>
      </trkpt>
      <trkpt lat="49.02054" lon="7.34708">
        <ele>286.065125</ele>
        <time>2018-05-03T22:59:54Z</time>
      </trkpt>
      <trkpt lat="49.02028" lon="7.3473">
        <ele>281.649933</ele>
        <time>2018-05-03T23:00:54Z</time>
      </trkpt>
      <trkpt lat="49.02026" lon="7.34757">
        <ele>281.6026</ele>
        <time>2018-05-03T23:01:54Z</time>
      </trkpt>
      <trkpt lat="49.02031" lon="7.34805">
        <ele>282.891846</ele>
        <time>2018-05-03T23:02:54Z</time>
      </trkpt>
      <trkpt lat="49.02033" lon="7.34859">
        <ele>288.854248</ele>
        <time>2018-05-03T23:03:54Z</time>
      </trkpt>
      <trkpt lat="49.02038" lon="7.34892">
        <ele>291.900879</ele>
        <time>2018-05-03T23:04:54Z</time>
      </trkpt>
      <trkpt lat="49.02029" lon="7.35081">
        <ele>308.4422</ele>
        <time>2018-05-03T23:06:54Z</time>
      </trkpt>
      <trkpt lat="49.0202" lon="7.35134">
        <ele>307.19577</ele>
        <time>2018-05-03T23:07:54Z</time>
      </trkpt>
      <trkpt lat="49.02005" lon="7.35172">
        <ele>307.601257</ele>
        <time>2018-05-03T23:08:54Z</time>
      </trkpt>
      <trkpt lat="49.01974" lon="7.35231">
        <ele>308.217499</ele>
        <time>2018-05-03T23:09:54Z</time>
      </trkpt>
      <trkpt lat="49.01958" lon="7.35291">
        <ele>307.43396</ele>
        <time>2018-05-03T23:10:54Z</time>
      </trkpt>
      <trkpt lat="49.01958" lon="7.35315">
        <ele>310.86499</ele>
        <time>2018-05-03T23:11:54Z</time>
      </trkpt>
      <trkpt lat="49.0204" lon="7.35324">
        <ele>298.774994</ele>
        <time>2018-05-03T23:12:54Z</time>
      </trkpt>
      <trkpt lat="49.02097" lon="7.35304">
        <ele>287.218231</ele>
        <time>2018-05-03T23:13:54Z</time>
      </trkpt>
      <trkpt lat="49.02138" lon="7.35336">
        <ele>292.375</ele>
        <time>2018-05-03T23:14:54Z</time>
      </trkpt>
      <trkpt lat="49.02205" lon="7.35406">
        <ele>299.461639</ele>
        <time>2018-05-03T23:15:54Z</time>
      </trkpt>
      <trkpt lat="49.02258" lon="7.35483">
        <ele>297.238251</ele>
        <time>2018-05-03T23:16:54Z</time>
      </trkpt>
      <trkpt lat="49.02306" lon="7.35565">
        <ele>294.513336</ele>
        <time>2018-05-03T23:17:54Z</time>
      </trkpt>
      <trkpt lat="49.02293" lon="7.35652">
        <ele>302.532532</ele>
        <time>2018-05-03T23:18:54Z</time>
      </trkpt>
      <trkpt lat="49.02264" lon="7.35691">
        <ele>309.22818</ele>
        <time>2018-05-03T23:19:54Z</time>
      </trkpt>
      <trkpt lat="49.02215" lon="7.35739">
        <ele>323.251007</ele>
        <time>2018-05-03T23:20:54Z</time>
      </trkpt>
      <trkpt lat="49.02163" lon="7.35806">
        <ele>325.34079</ele>
        <time>2018-05-03T23:21:54Z</time>
      </trkpt>
      <trkpt lat="49.02098" lon="7.35807">
        <ele>340.464691</ele>
        <time>2018-05-03T23:22:54Z</time>
      </trkpt>
      <trkpt lat="49.02045" lon="7.35824">
        <ele>350.324829</ele>
        <time>2018-05-03T23:23:54Z</time>
      </trkpt>
      <trkpt lat="49.01999" lon="7.35852">
        <ele>353.681305</ele>
        <time>2018-05-03T23:24:54Z</time>
      </trkpt>
      <trkpt lat="49.01928" lon="7.35862">
        <ele>360.194061</ele>
        <time>2018-05-03T23:25:54Z</time>
      </trkpt>
      <trkpt lat="49.01892" lon="7.3588">
        <ele>364.341156</ele>
        <time>2018-05-03T23:26:54Z</time>
      </trkpt>
      <trkpt lat="49.01873" lon="7.35925">
        <ele>362.027893</ele>
        <time>2018-05-03T23:27:54Z</time>
      </trkpt>
      <trkpt lat="49.01862" lon="7.36007">
        <ele>348.230804</ele>
        <time>2018-05-03T23:28:54Z</time>
      </trkpt>
      <trkpt lat="49.01811" lon="7.36046">
        <ele>348.760895</ele>
        <time>2018-05-03T23:29:54Z</time>
      </trkpt>
      <trkpt lat="49.01746" lon="7.36086">
        <ele>340.193665</ele>
        <time>2018-05-03T23:30:54Z</time>
      </trkpt>
      <trkpt lat="49.01661" lon="7.36043">
        <ele>362.163177</ele>
        <time>2018-05-03T23:31:54Z</time>
      </trkpt>
      <trkpt lat="49.0161" lon="7.36061">
        <ele>348.771973</ele>
        <time>2018-05-03T23:32:54Z</time>
      </trkpt>
      <trkpt lat="49.01553" lon="7.3607">
        <ele>337.087769</ele>
        <time>2018-05-03T23:33:54Z</time>
      </trkpt>
      <trkpt lat="49.01476" lon="7.36032">
        <ele>340.732178</ele>
        <time>2018-05-03T23:34:54Z</time>
      </trkpt>
      <trkpt lat="49.01389" lon="7.3605">
        <ele>330.713745</ele>
        <time>2018-05-03T23:35:54Z</time>
      </trkpt>
      <trkpt lat="49.01347" lon="7.36023">
        <ele>324.610565</ele>
        <time>2018-05-03T23:36:54Z</time>
      </trkpt>
      <trkpt lat="49.01299" lon="7.35835">
        <ele>330.653625</ele>
        <time>2018-05-03T23:37:54Z</time>
      </trkpt>
      <trkpt lat="49.01231" lon="7.35561">
        <ele>350.047485</ele>
        <time>2018-05-03T23:38:54Z</time>
      </trkpt>
      <trkpt lat="49.01214" lon="7.35507">
        <ele>355.127747</ele>
        <time>2018-05-03T23:39:54Z</time>
      </trkpt>
      <trkpt lat="49.01138" lon="7.35435">
        <ele>356.685181</ele>
        <time>2018-05-03T23:40:54Z</time>
      </trkpt>
      <trkpt lat="49.01086" lon="7.35379">
        <ele>358.602997</ele>
        <time>2018-05-03T23:41:54Z</time>
      </trkpt>
      <trkpt lat="49.01067" lon="7.35353">
        <ele>358.01532</ele>
        <time>2018-05-03T23:42:54Z</time>
      </trkpt>
      <trkpt lat="49.01024" lon="7.35474">
        <ele>355.97757</ele>
        <time>2018-05-03T23:43:54Z</time>
      </trkpt>
      <trkpt lat="49.01006" lon="7.35547">
        <ele>355.585602</ele>
        <time>2018-05-03T23:44:54Z</time>
      </trkpt>
      <trkpt lat="49.01" lon="7.35621">
        <ele>355.61499</ele>
        <time>2018-05-03T23:45:54Z</time>
      </trkpt>
      <trkpt lat="49.01013" lon="7.35755">
        <ele>353.128357</ele>
        <time>2018-05-03T23:46:54Z</time>
      </trkpt>
      <trkpt lat="49.01028" lon="7.35857">
        <ele>347.420013</ele>
        <time>2018-05-03T23:47:54Z</time>
      </trkpt>
      <trkpt lat="49.01009" lon="7.359">
        <ele>343.883759</ele>
        <time>2018-05-03T23:48:54Z</time>
      </trkpt>
      <trkpt lat="49.00967" lon="7.35905">
        <ele>340.677582</ele>
        <time>2018-05-03T23:49:54Z</time>
      </trkpt>
      <trkpt lat="49.00911" lon="7.35863">
        <ele>335.805786</ele>
        <time>2018-05-03T23:50:54Z</time>
      </trkpt>
      <trkpt lat="49.00895" lon="7.35806">
        <ele>331.09613</ele>
        <time>2018-05-03T23:51:54Z</time>
      </trkpt>
      <trkpt lat="49.00884" lon="7.35729">
        <ele>321.084503</ele>
        <time>2018-05-03T23:52:54Z</time>
      </trkpt>
      <trkpt lat="49.00864" lon="7.35729">
        <ele>312.563629</ele>
        <time>2018-05-03T23:53:54Z</time>
      </trkpt>
      <trkpt lat="49.0083" lon="7.3585">
        <ele>312.258148</ele>
        <time>2018-05-03T23:54:54Z</time>
      </trkpt>
      <trkpt lat="49.00823" lon="7.35901">
        <ele>311.124115</ele>
        <time>2018-05-03T23:55:54Z</time>
      </trkpt>
      <trkpt lat="49.00843" lon="7.35954">
        <ele>312.037415</ele>
        <time>2018-05-03T23:56:54Z</time>
      </trkpt>
      <trkpt lat="49.00926" lon="7.3601">
        <ele>316.335846</ele>
        <time>2018-05-03T23:57:54Z</time>
      </trkpt>
      <trkpt lat="49.01009" lon="7.36053">
        <ele>304.951263</ele>
        <time>2018-05-03T23:58:54Z</time>
      </trkpt>
      <trkpt lat="49.01084" lon="7.36057">
        <ele>296.553192</ele>
        <time>2018-05-03T23:59:54Z</time>
      </trkpt>
      <trkpt lat="49.01107" lon="7.36051">
        <ele>294.442169</ele>
        <time>2018-05-04T00:00:54Z</time>
      </trkpt>
      <trkpt lat="49.01099" lon="7.36066">
        <ele>292.636383</ele>
        <time>2018-05-04T00:01:54Z</time>
      </trkpt>
      <trkpt lat="49.01052" lon="7.36063">
        <ele>298.506989</ele>
        <time>2018-05-04T00:02:54Z</time>
      </trkpt>
      <trkpt lat="49.01004" lon="7.36067">
        <ele>300.985779</ele>
        <time>2018-05-04T00:03:54Z</time>
      </trkpt>
      <trkpt lat="49.00948" lon="7.36064">
        <ele>303.817902</ele>
        <time>2018-05-04T00:04:54Z</time>
      </trkpt>
      <trkpt lat="49.00872" lon="7.36046">
        <ele>300.168762</ele>
        <time>2018-05-04T00:05:54Z</time>
      </trkpt>
      <trkpt lat="49.0083" lon="7.36029">
        <ele>298.014099</ele>
        <time>2018-05-04T00:06:54Z</time>
      </trkpt>
      <trkpt lat="49.00791" lon="7.36029">
        <ele>291.719238</ele>
        <time>2018-05-04T00:07:54Z</time>
      </trkpt>
      <trkpt lat="49.00775" lon="7.3606">
        <ele>285.268555</ele>
        <time>2018-05-04T00:08:54Z</time>
      </trkpt>
      <trkpt lat="49.00734" lon="7.36071">
        <ele>286.161621</ele>
        <time>2018-05-04T00:09:54Z</time>
      </trkpt>
      <trkpt lat="49.00702" lon="7.3609">
        <ele>288.550812</ele>
        <time>2018-05-04T00:10:54Z</time>
      </trkpt>
      <trkpt lat="49.00673" lon="7.36131">
        <ele>288.950562</ele>
        <time>2018-05-04T00:11:54Z</time>
      </trkpt>
      <trkpt lat="49.00662" lon="7.36173">
        <ele>289.694794</ele>
        <time>2018-05-04T00:12:54Z</time>
      </trkpt>
      <trkpt lat="49.00646" lon="7.36277">
        <ele>295.612335</ele>
        <time>2018-05-04T00:13:54Z</time>
      </trkpt>
      <trkpt lat="49.00675" lon="7.36431">
        <ele>312.112152</ele>
        <time>2018-05-04T00:14:54Z</time>
      </trkpt>
      <trkpt lat="49.0072" lon="7.36535">
        <ele>326.1875</ele>
        <time>2018-05-04T00:15:54Z</time>
      </trkpt>
      <trkpt lat="49.00751" lon="7.3666">
        <ele>342.133118</ele>
        <time>2018-05-04T00:16:54Z</time>
      </trkpt>
      <trkpt lat="49.00767" lon="7.36734">
        <ele>350.524506</ele>
        <time>2018-05-04T00:17:54Z</time>
      </trkpt>
      <trkpt lat="49.00727" lon="7.36761">
        <ele>354.384247</ele>
        <time>2018-05-04T00:18:54Z</time>
      </trkpt>
      <trkpt lat="49.00813" lon="7.36883">
        <ele>354.65451</ele>
        <time>2018-05-04T00:19:54Z</time>
      </trkpt>
      <trkpt lat="49.00914" lon="7.37059">
        <ele>343.352631</ele>
        <time>2018-05-04T00:20:54Z</time>
      </trkpt>
      <trkpt lat="49.01009" lon="7.37058">
        <ele>317.036987</ele>
        <time>2018-05-04T00:21:54Z</time>
      </trkpt>
      <trkpt lat="49.01111" lon="7.37211">
        <ele>306.220642</ele>
        <time>2018-05-04T00:23:54Z</time>
      </trkpt>
      <trkpt lat="49.01133" lon="7.37256">
        <ele>306.128235</ele>
        <time>2018-05-04T00:24:54Z</time>
      </trkpt>
      <trkpt lat="49.0119" lon="7.37242">
        <ele>308.881683</ele>
        <time>2018-05-04T00:25:54Z</time>
      </trkpt>
      <trkpt lat="49.01218" lon="7.37291">
        <ele>310.929596</ele>
        <time>2018-05-04T00:26:54Z</time>
      </trkpt>
      <trkpt lat="49.01245" lon="7.37311">
        <ele>312.363342</ele>
        <time>2018-05-04T00:27:54Z</time>
      </trkpt>
      <trkpt lat="49.0124" lon="7.37338">
        <ele>309.467743</ele>
        <time>2018-05-04T00:28:54Z</time>
      </trkpt>
      <trkpt lat="49.01267" lon="7.37351">
        <ele>311.976837</ele>
        <time>2018-05-04T00:29:54Z</time>
      </trkpt>
      <trkpt lat="49.01346" lon="7.37434">
        <ele>319.864594</ele>
        <time>2018-05-04T00:30:54Z</time>
      </trkpt>
      <trkpt lat="49.01412" lon="7.37472">
        <ele>326.108429</ele>
        <time>2018-05-04T00:31:54Z</time>
      </trkpt>
      <trkpt lat="49.01544" lon="7.37589">
        <ele>352.032043</ele>
        <time>2018-05-04T00:32:54Z</time>
      </trkpt>
      <trkpt lat="49.01604" lon="7.3769">
        <ele>365.012878</ele>
        <time>2018-05-04T00:33:54Z</time>
      </trkpt>
      <trkpt lat="49.01628" lon="7.37775">
        <ele>366.600006</ele>
        <time>2018-05-04T00:34:54Z</time>
      </trkpt>
      <trkpt lat="49.01637" lon="7.37825">
        <ele>364.318237</ele>
        <time>2018-05-04T00:35:54Z</time>
      </trkpt>
      <trkpt lat="49.01617" lon="7.37941">
        <ele>363.287994</ele>
        <time>2018-05-04T00:36:54Z</time>
      </trkpt>
      <trkpt lat="49.01605" lon="7.38123">
        <ele>366.070496</ele>
        <time>2018-05-04T00:37:54Z</time>
      </trkpt>
      <trkpt lat="49.01579" lon="7.38257">
        <ele>368.545715</ele>
        <time>2018-05-04T00:38:54Z</time>
      </trkpt>
      <trkpt lat="49.01543" lon="7.38349">
        <ele>368.603119</ele>
        <time>2018-05-04T00:39:54Z</time>
      </trkpt>
      <trkpt lat="49.01481" lon="7.38462">
        <ele>372.517181</ele>
        <time>2018-05-04T00:40:54Z</time>
      </trkpt>
      <trkpt lat="49.01448" lon="7.38565">
        <ele>379.679199</ele>
        <time>2018-05-04T00:41:54Z</time>
      </trkpt>
      <trkpt lat="49.01511" lon="7.38731">
        <ele>372.487549</ele>
        <time>2018-05-04T00:42:54Z</time>
      </trkpt>
      <trkpt lat="49.01603" lon="7.38865">
        <ele>377.622284</ele>
        <time>2018-05-04T00:43:54Z</time>
      </trkpt>
      <trkpt lat="49.01648" lon="7.38895">
        <ele>379.57251</ele>
        <time>2018-05-04T00:44:54Z</time>
      </trkpt>
      <trkpt lat="49.017" lon="7.38748">
        <ele>375.473633</ele>
        <time>2018-05-04T00:45:54Z</time>
      </trkpt>
      <trkpt lat="49.01775" lon="7.38672">
        <ele>368.838013</ele>
        <time>2018-05-04T00:46:54Z</time>
      </trkpt>
      <trkpt lat="49.01816" lon="7.38583">
        <ele>364.575897</ele>
        <time>2018-05-04T00:47:54Z</time>
      </trkpt>
      <trkpt lat="49.01853" lon="7.38405">
        <ele>357.149658</ele>
        <time>2018-05-04T00:48:54Z</time>
      </trkpt>
      <trkpt lat="49.01878" lon="7.38331">
        <ele>355.606415</ele>
        <time>2018-05-04T00:49:54Z</time>
      </trkpt>
      <trkpt lat="49.01866" lon="7.38318">
        <ele>353.326508</ele>
        <time>2018-05-04T00:50:54Z</time>
      </trkpt>
      <trkpt lat="49.01866" lon="7.38226">
        <ele>345.871948</ele>
        <time>2018-05-04T00:51:54Z</time>
      </trkpt>
      <trkpt lat="49.01933" lon="7.38102">
        <ele>338.121613</ele>
        <time>2018-05-04T00:52:54Z</time>
      </trkpt>
      <trkpt lat="49.02001" lon="7.38076">
        <ele>325.569977</ele>
        <time>2018-05-04T00:53:54Z</time>
      </trkpt>
      <trkpt lat="49.02035" lon="7.38121">
        <ele>322.975006</ele>
        <time>2018-05-04T00:54:54Z</time>
      </trkpt>
      <trkpt lat="49.02088" lon="7.38167">
        <ele>311.809998</ele>
        <time>2018-05-04T00:55:54Z</time>
      </trkpt>
      <trkpt lat="49.02107" lon="7.38277">
        <ele>311.168365</ele>
        <time>2018-05-04T00:56:54Z</time>
      </trkpt>
      <trkpt lat="49.02106" lon="7.38379">
        <ele>312.165405</ele>
        <time>2018-05-04T00:57:54Z</time>
      </trkpt>
      <trkpt lat="49.02109" lon="7.385">
        <ele>314.367218</ele>
        <time>2018-05-04T00:58:54Z</time>
      </trkpt>
      <trkpt lat="49.02091" lon="7.38578">
        <ele>320.369385</ele>
        <time>2018-05-04T00:59:54Z</time>
      </trkpt>
      <trkpt lat="49.02113" lon="7.38614">
        <ele>318.029999</ele>
        <time>2018-05-04T01:00:54Z</time>
      </trkpt>
      <trkpt lat="49.0218" lon="7.38592">
        <ele>314.723328</ele>
        <time>2018-05-04T01:01:54Z</time>
      </trkpt>
      <trkpt lat="49.02244" lon="7.38623">
        <ele>318.314758</ele>
        <time>2018-05-04T01:02:54Z</time>
      </trkpt>
      <trkpt lat="49.02219" lon="7.38582">
        <ele>314.860687</ele>
        <time>2018-05-04T01:03:54Z</time>
      </trkpt>
      <trkpt lat="49.02207" lon="7.38498">
        <ele>311.535492</ele>
        <time>2018-05-04T01:04:54Z</time>
      </trkpt>
      <trkpt lat="49.0219" lon="7.38412">
        <ele>303.212158</ele>
        <time>2018-05-04T01:05:54Z</time>
      </trkpt>
      <trkpt lat="49.02191" lon="7.38325">
        <ele>299.825745</ele>
        <time>2018-05-04T01:06:54Z</time>
      </trkpt>
      <trkpt lat="49.02216" lon="7.38263">
        <ele>299.750397</ele>
        <time>2018-05-04T01:07:54Z</time>
      </trkpt>
      <trkpt lat="49.02242" lon="7.38194">
        <ele>296.433929</ele>
        <time>2018-05-04T01:08:54Z</time>
      </trkpt>
      <trkpt lat="49.02227" lon="7.38155">
        <ele>296.957886</ele>
        <time>2018-05-04T01:09:54Z</time>
      </trkpt>
      <trkpt lat="49.02193" lon="7.38013">
        <ele>297.129364</ele>
        <time>2018-05-04T01:10:54Z</time>
      </trkpt>
      <trkpt lat="49.02205" lon="7.37914">
        <ele>306.102539</ele>
        <time>2018-05-04T01:11:54Z</time>
      </trkpt>
      <trkpt lat="49.02182" lon="7.37791">
        <ele>309.519989</ele>
        <time>2018-05-04T01:12:54Z</time>
      </trkpt>
      <trkpt lat="49.02165" lon="7.37689">
        <ele>302.688324</ele>
        <time>2018-05-04T01:13:54Z</time>
      </trkpt>
      <trkpt lat="49.0215" lon="7.37589">
        <ele>297.566803</ele>
        <time>2018-05-04T01:14:54Z</time>
      </trkpt>
      <trkpt lat="49.02136" lon="7.37457">
        <ele>294.186218</ele>
        <time>2018-05-04T01:15:54Z</time>
      </trkpt>
      <trkpt lat="49.02144" lon="7.37309">
        <ele>291.742737</ele>
        <time>2018-05-04T01:16:54Z</time>
      </trkpt>
      <trkpt lat="49.02172" lon="7.37223">
        <ele>288.653046</ele>
        <time>2018-05-04T01:17:54Z</time>
      </trkpt>
      <trkpt lat="49.02207" lon="7.3717">
        <ele>286.087494</ele>
        <time>2018-05-04T01:18:54Z</time>
      </trkpt>
      <trkpt lat="49.02221" lon="7.3711">
        <ele>285.111328</ele>
        <time>2018-05-04T01:19:54Z</time>
      </trkpt>
      <trkpt lat="49.02192" lon="7.37071">
        <ele>284.081451</ele>
        <time>2018-05-04T01:20:54Z</time>
      </trkpt>
      <trkpt lat="49.0217" lon="7.37023">
        <ele>282.754639</ele>
        <time>2018-05-04T01:21:54Z</time>
      </trkpt>
      <trkpt lat="49.02158" lon="7.36895">
        <ele>283.994171</ele>
        <time>2018-05-04T01:22:54Z</time>
      </trkpt>
      <trkpt lat="49.02146" lon="7.36799">
        <ele>284.292786</ele>
        <time>2018-05-04T01:23:54Z</time>
      </trkpt>
      <trkpt lat="49.02111" lon="7.36695">
        <ele>282.065552</ele>
        <time>2018-05-04T01:24:54Z</time>
      </trkpt>
      <trkpt lat="49.02089" lon="7.36603">
        <ele>278.943451</ele>
        <time>2018-05-04T01:25:54Z</time>
      </trkpt>
      <trkpt lat="49.02055" lon="7.36478">
        <ele>277.308655</ele>
        <time>2018-05-04T01:26:54Z</time>
      </trkpt>
      <trkpt lat="49.02055" lon="7.364">
        <ele>277.889313</ele>
        <time>2018-05-04T01:27:54Z</time>
      </trkpt>
      <trkpt lat="49.0205" lon="7.36321">
        <ele>278.809998</ele>
        <time>2018-05-04T01:28:54Z</time>
      </trkpt>
      <trkpt lat="49.02071" lon="7.36229">
        <ele>279.639343</ele>
        <time>2018-05-04T01:29:54Z</time>
      </trkpt>
      <trkpt lat="49.02088" lon="7.36171">
        <ele>279.105774</ele>
        <time>2018-05-04T01:30:54Z</time>
      </trkpt>
      <trkpt lat="49.0221" lon="7.36138">
        <ele>304.800201</ele>
        <time>2018-05-04T01:32:54Z</time>
      </trkpt>
      <trkpt lat="49.02248" lon="7.36113">
        <ele>310.259857</ele>
        <time>2018-05-04T01:33:54Z</time>
      </trkpt>
      <trkpt lat="49.02298" lon="7.36113">
        <ele>323.522186</ele>
        <time>2018-05-04T01:34:54Z</time>
      </trkpt>
      <trkpt lat="49.02391" lon="7.36044">
        <ele>325.119232</ele>
        <time>2018-05-04T01:35:54Z</time>
      </trkpt>
      <trkpt lat="49.02466" lon="7.35903">
        <ele>304.283203</ele>
        <time>2018-05-04T01:36:54Z</time>
      </trkpt>
      <trkpt lat="49.0254" lon="7.35884">
        <ele>298.376099</ele>
        <time>2018-05-04T01:37:54Z</time>
      </trkpt>
      <trkpt lat="49.02601" lon="7.35916">
        <ele>295.497437</ele>
        <time>2018-05-04T01:38:54Z</time>
      </trkpt>
      <trkpt lat="49.02676" lon="7.3594">
        <ele>284.65387</ele>
        <time>2018-05-04T01:39:54Z</time>
      </trkpt>
      <trkpt lat="49.02763" lon="7.35974">
        <ele>275.727905</ele>
        <time>2018-05-04T01:40:54Z</time>
      </trkpt>
      <trkpt lat="49.02814" lon="7.35979">
        <ele>272.241547</ele>
        <time>2018-05-04T01:41:54Z</time>
      </trkpt>
      <trkpt lat="49.02866" lon="7.35977">
        <ele>272.511597</ele>
        <time>2018-05-04T01:42:54Z</time>
      </trkpt>
      <trkpt lat="49.02903" lon="7.35918">
        <ele>272.462189</ele>
        <time>2018-05-04T01:43:54Z</time>
      </trkpt>
      <trkpt lat="49.0296" lon="7.3586">
        <ele>272.087494</ele>
        <time>2018-05-04T01:44:54Z</time>
      </trkpt>
      <trkpt lat="49.03033" lon="7.35827">
        <ele>273.00882</ele>
        <time>2018-05-04T01:45:54Z</time>
      </trkpt>
      <trkpt lat="49.03126" lon="7.35817">
        <ele>270.709991</ele>
        <time>2018-05-04T01:46:54Z</time>
      </trkpt>
      <trkpt lat="49.03207" lon="7.35841">
        <ele>275.432617</ele>
        <time>2018-05-04T01:47:54Z</time>
      </trkpt>
      <trkpt lat="49.033" lon="7.35864">
        <ele>274.099548</ele>
        <time>2018-05-04T01:48:54Z</time>
      </trkpt>
      <trkpt lat="49.03411" lon="7.35962">
        <ele>272.554169</ele>
        <time>2018-05-04T01:49:54Z</time>
      </trkpt>
      <trkpt lat="49.03457" lon="7.35981">
        <ele>268.778687</ele>
        <time>2018-05-04T01:50:54Z</time>
      </trkpt>
      <trkpt lat="49.03499" lon="7.35971">
        <ele>269.857025</ele>
        <time>2018-05-04T01:51:54Z</time>
      </trkpt>
      <trkpt lat="49.03503" lon="7.35932">
        <ele>269.596588</ele>
        <time>2018-05-04T01:52:54Z</time>
      </trkpt>
      <trkpt lat="49.035" lon="7.35823">
        <ele>268</ele>
        <time>2018-05-04T01:53:54Z</time>
      </trkpt>
      <trkpt lat="49.035" lon="7.35777">
        <ele>268</ele>
        <time>2018-05-04T01:54:54Z</time>
      </trkpt>
      <trkpt lat="49.03493" lon="7.35756">
        <ele>268</ele>
        <time>2018-05-04T01:55:54Z</time>
      </trkpt>
      <trkpt lat="49.03502" lon="7.35736">
        <ele>268</ele>
        <time>2018-05-04T01:56:54Z</time>
      </trkpt>
      <trkpt lat="49.03535" lon="7.35702">
        <ele>268.441559</ele>
        <time>2018-05-04T01:57:54Z</time>
      </trkpt>
      <trkpt lat="49.03623" lon="7.35696">
        <ele>268.699005</ele>
        <time>2018-05-04T01:58:54Z</time>
      </trkpt>
      <trkpt lat="49.03617" lon="7.35557">
        <ele>270.552734</ele>
        <time>2018-05-04T01:59:54Z</time>
      </trkpt>
      <trkpt lat="49.03612" lon="7.35461">
        <ele>271.271362</ele>
        <time>2018-05-04T02:00:54Z</time>
      </trkpt>
      <trkpt lat="49.03616" lon="7.35406">
        <ele>272.388763</ele>
        <time>2018-05-04T02:01:54Z</time>
      </trkpt>
      <trkpt lat="49.03625" lon="7.35393">
        <ele>273.38089</ele>
        <time>2018-05-04T02:02:54Z</time>
      </trkpt>
      <trkpt lat="49.03602" lon="7.35281">
        <ele>277.1698</ele>
        <time>2018-05-04T02:03:54Z</time>
      </trkpt>
      <trkpt lat="49.03584" lon="7.35211">
        <ele>281.636108</ele>
        <time>2018-05-04T02:04:54Z</time>
      </trkpt>
      <trkpt lat="49.03535" lon="7.3506">
        <ele>288.700012</ele>
        <time>2018-05-04T02:05:54Z</time>
      </trkpt>
      <trkpt lat="49.03645" lon="7.3526">
        <ele>297.226227</ele>
        <time>2018-05-04T02:06:54Z</time>
      </trkpt>
      <trkpt lat="49.03678" lon="7.35425">
        <ele>283.740845</ele>
        <time>2018-05-04T02:07:54Z</time>
      </trkpt>
      <trkpt lat="49.03699" lon="7.35478">
        <ele>281.314423</ele>
        <time>2018-05-04T02:08:54Z</time>
      </trkpt>
      <trkpt lat="49.03733" lon="7.35493">
        <ele>284.987183</ele>
        <time>2018-05-04T02:09:54Z</time>
      </trkpt>
      <trkpt lat="49.03812" lon="7.35536">
        <ele>277.716064</ele>
        <time>2018-05-04T02:10:54Z</time>
      </trkpt>
      <trkpt lat="49.03874" lon="7.35558">
        <ele>271.906891</ele>
        <time>2018-05-04T02:11:54Z</time>
      </trkpt>
      <trkpt lat="49.03937" lon="7.35509">
        <ele>275.262024</ele>
        <time>2018-05-04T02:12:54Z</time>
      </trkpt>
      <trkpt lat="49.04026" lon="7.35412">
        <ele>278.721985</ele>
        <time>2018-05-04T02:14:54Z</time>
      </trkpt>
      <trkpt lat="49.04027" lon="7.35437">
        <ele>273.884796</ele>
        <time>2018-05-04T02:15:54Z</time>
      </trkpt>
      <trkpt lat="49.04034" lon="7.35447">
        <ele>271.519592</ele>
        <time>2018-05-04T02:16:54Z</time>
      </trkpt>
      <trkpt lat="49.0408" lon="7.35407">
        <ele>269.572845</ele>
        <time>2018-05-04T02:17:54Z</time>
      </trkpt>
      <trkpt lat="49.04098" lon="7.35353">
        <ele>272.11911</ele>
        <time>2018-05-04T02:18:54Z</time>
      </trkpt>
      <trkpt lat="49.04109" lon="7.35272">
        <ele>275.036255</ele>
        <time>2018-05-04T02:19:54Z</time>
      </trkpt>
      <trkpt lat="49.04147" lon="7.35277">
        <ele>268.892365</ele>
        <time>2018-05-04T02:20:54Z</time>
      </trkpt>
      <trkpt lat="49.04173" lon="7.35203">
        <ele>268.140808</ele>
        <time>2018-05-04T02:21:54Z</time>
      </trkpt>
      <trkpt lat="49.04154" lon="7.35169">
        <ele>269.444489</ele>
        <time>2018-05-04T02:22:54Z</time>
      </trkpt>
      <trkpt lat="49.04166" lon="7.35099">
        <ele>277.01709</ele>
        <time>2018-05-04T02:23:54Z</time>
      </trkpt>
      <trkpt lat="49.04172" lon="7.35005">
        <ele>292.411713</ele>
        <time>2018-05-04T02:24:54Z</time>
      </trkpt>
      <trkpt lat="49.04192" lon="7.34978">
        <ele>290.102448</ele>
        <time>2018-05-04T02:25:54Z</time>
      </trkpt>
      <trkpt lat="49.04225" lon="7.34875">
        <ele>291.010162</ele>
        <time>2018-05-04T02:26:54Z</time>
      </trkpt>
      <trkpt lat="49.04243" lon="7.348">
        <ele>285.681</ele>
        <time>2018-05-04T02:27:54Z</time>
      </trkpt>
      <trkpt lat="49.04227" lon="7.34766">
        <ele>287.994385</ele>
        <time>2018-05-04T02:28:54Z</time>
      </trkpt>
      <trkpt lat="49.04201" lon="7.34744">
        <ele>295.659515</ele>
        <time>2018-05-04T02:29:54Z</time>
      </trkpt>
      <trkpt lat="49.04176" lon="7.34678">
        <ele>293.544739</ele>
        <time>2018-05-04T02:30:54Z</time>
      </trkpt>
      <trkpt lat="49.04143" lon="7.3461">
        <ele>293.338989</ele>
        <time>2018-05-04T02:31:54Z</time>
      </trkpt>
      <trkpt lat="49.04026" lon="7.34471">
        <ele>300.571594</ele>
        <time>2018-05-04T02:32:54Z</time>
      </trkpt>
      <trkpt lat="49.03903" lon="7.3433">
        <ele>316.338898</ele>
        <time>2018-05-04T02:33:54Z</time>
      </trkpt>
      <trkpt lat="49.03792" lon="7.34216">
        <ele>336.122162</ele>
        <time>2018-05-04T02:34:54Z</time>
      </trkpt>
      <trkpt lat="49.03756" lon="7.34173">
        <ele>344.302063</ele>
        <time>2018-05-04T02:35:54Z</time>
      </trkpt>
      <trkpt lat="49.03736" lon="7.34092">
        <ele>352.330688</ele>
        <time>2018-05-04T02:36:54Z</time>
      </trkpt>
      <trkpt lat="49.03747" lon="7.34047">
        <ele>353.138763</ele>
        <time>2018-05-04T02:37:54Z</time>
      </trkpt>
      <trkpt lat="49.03781" lon="7.3399">
        <ele>355.648499</ele>
        <time>2018-05-04T02:38:54Z</time>
      </trkpt>
      <trkpt lat="49.0379" lon="7.3396">
        <ele>361.560181</ele>
        <time>2018-05-04T02:39:54Z</time>
      </trkpt>
      <trkpt lat="49.03774" lon="7.33951">
        <ele>362.686066</ele>
        <time>2018-05-04T02:40:54Z</time>
      </trkpt>
      <trkpt lat="49.03722" lon="7.33978">
        <ele>362.933197</ele>
        <time>2018-05-04T02:42:54Z</time>
      </trkpt>
      <trkpt lat="49.03696" lon="7.34024">
        <ele>362.19101</ele>
        <time>2018-05-04T02:43:54Z</time>
      </trkpt>
      <trkpt lat="49.0367" lon="7.34079">
        <ele>362.955994</ele>
        <time>2018-05-04T02:44:54Z</time>
      </trkpt>
      <trkpt lat="49.03662" lon="7.34128">
        <ele>364.232361</ele>
        <time>2018-05-04T02:45:54Z</time>
      </trkpt>
      <trkpt lat="49.03664" lon="7.34189">
        <ele>366.101563</ele>
        <time>2018-05-04T02:46:54Z</time>
      </trkpt>
      <trkpt lat="49.03652" lon="7.34222">
        <ele>368.946533</ele>
        <time>2018-05-04T02:47:54Z</time>
      </trkpt>
      <trkpt lat="49.03636" lon="7.34239">
        <ele>371.190216</ele>
        <time>2018-05-04T02:48:54Z</time>
      </trkpt>
      <trkpt lat="49.03618" lon="7.34249">
        <ele>372.423889</ele>
        <time>2018-05-04T02:49:54Z</time>
      </trkpt>
      <trkpt lat="49.03578" lon="7.34209">
        <ele>373.707092</ele>
        <time>2018-05-04T02:50:54Z</time>
      </trkpt>
      <trkpt lat="49.03527" lon="7.34173">
        <ele>372.921967</ele>
        <time>2018-05-04T02:51:54Z</time>
      </trkpt>
      <trkpt lat="49.03492" lon="7.34163">
        <ele>371.712952</ele>
        <time>2018-05-04T02:52:54Z</time>
      </trkpt>
      <trkpt lat="49.03455" lon="7.34139">
        <ele>370.558014</ele>
        <time>2018-05-04T02:53:54Z</time>
      </trkpt>
      <trkpt lat="49.0339" lon="7.34119">
        <ele>369.88501</ele>
        <time>2018-05-04T02:54:54Z</time>
      </trkpt>
      <trkpt lat="49.03362" lon="7.3412">
        <ele>370.485535</ele>
        <time>2018-05-04T02:55:54Z</time>
      </trkpt>
      <trkpt lat="49.03302" lon="7.34137">
        <ele>373.351501</ele>
        <time>2018-05-04T02:56:54Z</time>
      </trkpt>
      <trkpt lat="49.0325" lon="7.34145">
        <ele>375.885376</ele>
        <time>2018-05-04T02:57:54Z</time>
      </trkpt>
      <trkpt lat="49.03202" lon="7.34146">
        <ele>376.082367</ele>
        <time>2018-05-04T02:58:54Z</time>
      </trkpt>
      <trkpt lat="49.03158" lon="7.34129">
        <ele>376.015625</ele>
        <time>2018-05-04T02:59:54Z</time>
      </trkpt>
      <trkpt lat="49.0308" lon="7.34104">
        <ele>375.974396</ele>
        <time>2018-05-04T03:00:54Z</time>
      </trkpt>
      <trkpt lat="49.03006" lon="7.34093">
        <ele>376.553741</ele>
        <time>2018-05-04T03:01:54Z</time>
      </trkpt>
      <trkpt lat="49.02884" lon="7.34105">
        <ele>376.582062</ele>
        <time>2018-05-04T03:02:54Z</time>
      </trkpt>
      <trkpt lat="49.02805" lon="7.34098">
        <ele>379.861023</ele>
        <time>2018-05-04T03:03:54Z</time>
      </trkpt>
      <trkpt lat="49.02725" lon="7.34059">
        <ele>381</ele>
        <time>2018-05-04T03:04:54Z</time>
      </trkpt>
      <trkpt lat="49.02636" lon="7.33997">
        <ele>381</ele>
        <time>2018-05-04T03:05:54Z</time>
      </trkpt>
      <trkpt lat="49.02611" lon="7.33993">
        <ele>381</ele>
        <time>2018-05-04T03:06:54Z</time>
      </trkpt>
      <trkpt lat="49.02615" lon="7.33971">
        <ele>381.136749</ele>
        <time>2018-05-04T03:07:54Z</time>
      </trkpt>
      <trkpt lat="49.02598" lon="7.33918">
        <ele>381.676178</ele>
        <time>2018-05-04T03:08:54Z</time>
      </trkpt>
      <trkpt lat="49.02546" lon="7.33827">
        <ele>379.244995</ele>
        <time>2018-05-04T03:09:54Z</time>
      </trkpt>
      <trkpt lat="49.02469" lon="7.33668">
        <ele>375.034393</ele>
        <time>2018-05-04T03:10:54Z</time>
      </trkpt>
      <trkpt lat="49.02467" lon="7.33628">
        <ele>374.57959</ele>
        <time>2018-05-04T03:11:54Z</time>
      </trkpt>
      <trkpt lat="49.02412" lon="7.33503">
        <ele>375.555756</ele>
        <time>2018-05-04T03:12:54Z</time>
      </trkpt>
      <trkpt lat="49.02507" lon="7.33528">
        <ele>370.188721</ele>
        <time>2018-05-04T03:13:54Z</time>
      </trkpt>
      <trkpt lat="49.02582" lon="7.33456">
        <ele>363.125</ele>
        <time>2018-05-04T03:14:54Z</time>
      </trkpt>
      <trkpt lat="49.02624" lon="7.3344">
        <ele>361.391235</ele>
        <time>2018-05-04T03:15:54Z</time>
      </trkpt>
      <trkpt lat="49.02579" lon="7.33339">
        <ele>358.825897</ele>
        <time>2018-05-04T03:16:54Z</time>
      </trkpt>
      <trkpt lat="49.02698" lon="7.33297">
        <ele>349.039215</ele>
        <time>2018-05-04T03:17:54Z</time>
      </trkpt>
      <trkpt lat="49.02821" lon="7.33289">
        <ele>353.06134</ele>
        <time>2018-05-04T03:18:54Z</time>
      </trkpt>
      <trkpt lat="49.02957" lon="7.33259">
        <ele>351.487</ele>
        <time>2018-05-04T03:19:54Z</time>
      </trkpt>
      <trkpt lat="49.03021" lon="7.33241">
        <ele>349.299011</ele>
        <time>2018-05-04T03:20:54Z</time>
      </trkpt>
      <trkpt lat="49.03091" lon="7.33168">
        <ele>348.12442</ele>
        <time>2018-05-04T03:21:54Z</time>
      </trkpt>
      <trkpt lat="49.03161" lon="7.33121">
        <ele>345.365631</ele>
        <time>2018-05-04T03:22:54Z</time>
      </trkpt>
      <trkpt lat="49.03262" lon="7.33046">
        <ele>342.488007</ele>
        <time>2018-05-04T03:23:54Z</time>
      </trkpt>
      <trkpt lat="49.03336" lon="7.32973">
        <ele>338.679993</ele>
        <time>2018-05-04T03:24:54Z</time>
      </trkpt>
      <trkpt lat="49.034" lon="7.32969">
        <ele>335.751038</ele>
        <time>2018-05-04T03:25:54Z</time>
      </trkpt>
      <trkpt lat="49.03464" lon="7.33028">
        <ele>337.979736</ele>
        <time>2018-05-04T03:26:54Z</time>
      </trkpt>
      <trkpt lat="49.03514" lon="7.33102">
        <ele>342.429321</ele>
        <time>2018-05-04T03:27:54Z</time>
      </trkpt>
      <trkpt lat="49.03559" lon="7.33153">
        <ele>350.344421</ele>
        <time>2018-05-04T03:28:54Z</time>
      </trkpt>
      <trkpt lat="49.03625" lon="7.33135">
        <ele>354.05249</ele>
        <time>2018-05-04T03:29:54Z</time>
      </trkpt>
      <trkpt lat="49.03714" lon="7.33139">
        <ele>358.059998</ele>
        <time>2018-05-04T03:30:54Z</time>
      </trkpt>
      <trkpt lat="49.03783" lon="7.33154">
        <ele>358.665802</ele>
        <time>2018-05-04T03:31:54Z</time>
      </trkpt>
      <trkpt lat="49.03831" lon="7.33015">
        <ele>354.066315</ele>
        <time>2018-05-04T03:32:54Z</time>
      </trkpt>
      <trkpt lat="49.03857" lon="7.3292">
        <ele>347.665741</ele>
        <time>2018-05-04T03:33:54Z</time>
      </trkpt>
      <trkpt lat="49.03881" lon="7.32876">
        <ele>342.276733</ele>
        <time>2018-05-04T03:34:54Z</time>
      </trkpt>
      <trkpt lat="49.03924" lon="7.32882">
        <ele>338.198395</ele>
        <time>2018-05-04T03:35:54Z</time>
      </trkpt>
      <trkpt lat="49.03906" lon="7.32845">
        <ele>335.559174</ele>
        <time>2018-05-04T03:36:54Z</time>
      </trkpt>
      <trkpt lat="49.0394" lon="7.32862">
        <ele>332.480103</ele>
        <time>2018-05-04T03:37:54Z</time>
      </trkpt>
      <trkpt lat="49.03918" lon="7.32816">
        <ele>329.856262</ele>
        <time>2018-05-04T03:38:54Z</time>
      </trkpt>
      <trkpt lat="49.03953" lon="7.32831">
        <ele>323.510254</ele>
        <time>2018-05-04T03:39:54Z</time>
      </trkpt>
      <trkpt lat="49.03927" lon="7.32803">
        <ele>324.878204</ele>
        <time>2018-05-04T03:40:54Z</time>
      </trkpt>
      <trkpt lat="49.03959" lon="7.32807">
        <ele>316.743439</ele>
        <time>2018-05-04T03:41:54Z</time>
      </trkpt>
      <trkpt lat="49.03941" lon="7.3278">
        <ele>315.089844</ele>
        <time>2018-05-04T03:42:54Z</time>
      </trkpt>
      <trkpt lat="49.03972" lon="7.32778">
        <ele>306.796234</ele>
        <time>2018-05-04T03:43:54Z</time>
      </trkpt>
      <trkpt lat="49.0395" lon="7.32745">
        <ele>304.294403</ele>
        <time>2018-05-04T03:44:54Z</time>
      </trkpt>
      <trkpt lat="49.04" lon="7.3274">
        <ele>290.111359</ele>
        <time>2018-05-04T03:45:54Z</time>
      </trkpt>
      <trkpt lat="49.03968" lon="7.32699">
        <ele>287.665161</ele>
        <time>2018-05-04T03:46:54Z</time>
      </trkpt>
      <trkpt lat="49.04016" lon="7.32707">
        <ele>280.654297</ele>
        <time>2018-05-04T03:47:54Z</time>
      </trkpt>
      <trkpt lat="49.0412" lon="7.32792">
        <ele>282.598114</ele>
        <time>2018-05-04T03:48:54Z</time>
      </trkpt>
      <trkpt lat="49.04207" lon="7.32828">
        <ele>282.779999</ele>
        <time>2018-05-04T03:49:54Z</time>
      </trkpt>
      <trkpt lat="49.04295" lon="7.32846">
        <ele>279.278046</ele>
        <time>2018-05-04T03:50:54Z</time>
      </trkpt>
      <trkpt lat="49.04346" lon="7.32804">
        <ele>270.739288</ele>
        <time>2018-05-04T03:51:54Z</time>
      </trkpt>
      <trkpt lat="49.04377" lon="7.32661">
        <ele>277.877258</ele>
        <time>2018-05-04T03:52:54Z</time>
      </trkpt>
      <trkpt lat="49.04386" lon="7.32458">
        <ele>282.287628</ele>
        <time>2018-05-04T03:53:54Z</time>
      </trkpt>
      <trkpt lat="49.04372" lon="7.32236">
        <ele>283.611298</ele>
        <time>2018-05-04T03:54:54Z</time>
      </trkpt>
      <trkpt lat="49.04351" lon="7.32019">
        <ele>290.159882</ele>
        <time>2018-05-04T03:55:54Z</time>
      </trkpt>
      <trkpt lat="49.04337" lon="7.31992">
        <ele>297.930725</ele>
        <time>2018-05-04T03:56:54Z</time>
      </trkpt>
      <trkpt lat="49.04375" lon="7.31893">
        <ele>292.361664</ele>
        <time>2018-05-04T03:57:54Z</time>
      </trkpt>
      <trkpt lat="49.04406" lon="7.31793">
        <ele>288.553558</ele>
        <time>2018-05-04T03:58:54Z</time>
      </trkpt>
      <trkpt lat="49.04447" lon="7.31726">
        <ele>293.416565</ele>
        <time>2018-05-04T03:59:54Z</time>
      </trkpt>
      <trkpt lat="49.04548" lon="7.31675">
        <ele>302.213013</ele>
        <time>2018-05-04T04:00:54Z</time>
      </trkpt>
      <trkpt lat="49.04621" lon="7.31616">
        <ele>306.501526</ele>
        <time>2018-05-04T04:01:54Z</time>
      </trkpt>
      <trkpt lat="49.04694" lon="7.3161">
        <ele>313.494019</ele>
        <time>2018-05-04T04:02:54Z</time>
      </trkpt>
      <trkpt lat="49.04745" lon="7.31552">
        <ele>321.264709</ele>
        <time>2018-05-04T04:03:54Z</time>
      </trkpt>
      <trkpt lat="49.04801" lon="7.3145">
        <ele>326.767487</ele>
        <time>2018-05-04T04:04:54Z</time>
      </trkpt>
      <trkpt lat="49.04886" lon="7.31361">
        <ele>332.556213</ele>
        <time>2018-05-04T04:05:54Z</time>
      </trkpt>
      <trkpt lat="49.04938" lon="7.31283">
        <ele>336.922485</ele>
        <time>2018-05-04T04:06:54Z</time>
      </trkpt>
      <trkpt lat="49.04967" lon="7.31232">
        <ele>340.673737</ele>
        <time>2018-05-04T04:07:54Z</time>
      </trkpt>
      <trkpt lat="49.05028" lon="7.31215">
        <ele>349.215088</ele>
        <time>2018-05-04T04:08:54Z</time>
      </trkpt>
      <trkpt lat="49.04982" lon="7.31126">
        <ele>346.946503</ele>
        <time>2018-05-04T04:09:54Z</time>
      </trkpt>
      <trkpt lat="49.04914" lon="7.30989">
        <ele>349.638184</ele>
        <time>2018-05-04T04:10:54Z</time>
      </trkpt>
      <trkpt lat="49.04845" lon="7.30875">
        <ele>348.661652</ele>
        <time>2018-05-04T04:11:54Z</time>
      </trkpt>
      <trkpt lat="49.04802" lon="7.30837">
        <ele>349.182495</ele>
        <time>2018-05-04T04:12:54Z</time>
      </trkpt>
      <trkpt lat="49.04736" lon="7.30839">
        <ele>350.072876</ele>
        <time>2018-05-04T04:13:54Z</time>
      </trkpt>
      <trkpt lat="49.04629" lon="7.30881">
        <ele>350.969635</ele>
        <time>2018-05-04T04:14:54Z</time>
      </trkpt>
      <trkpt lat="49.04501" lon="7.30904">
        <ele>350.826233</ele>
        <time>2018-05-04T04:15:54Z</time>
      </trkpt>
      <trkpt lat="49.04398" lon="7.309">
        <ele>347.649994</ele>
        <time>2018-05-04T04:16:54Z</time>
      </trkpt>
      <trkpt lat="49.04272" lon="7.30921">
        <ele>349.645691</ele>
        <time>2018-05-04T04:17:54Z</time>
      </trkpt>
      <trkpt lat="49.04242" lon="7.30871">
        <ele>350.885498</ele>
        <time>2018-05-04T04:18:54Z</time>
      </trkpt>
      <trkpt lat="49.04104" lon="7.30831">
        <ele>351</ele>
        <time>2018-05-04T04:19:54Z</time>
      </trkpt>
      <trkpt lat="49.03915" lon="7.30707">
        <ele>345.024933</ele>
        <time>2018-05-04T04:20:54Z</time>
      </trkpt>
      <trkpt lat="49.03791" lon="7.30595">
        <ele>342.979858</ele>
        <time>2018-05-04T04:21:54Z</time>
      </trkpt>
      <trkpt lat="49.03772" lon="7.30705">
        <ele>340.32251</ele>
        <time>2018-05-04T04:22:54Z</time>
      </trkpt>
      <trkpt lat="49.03763" lon="7.3078">
        <ele>336.395935</ele>
        <time>2018-05-04T04:23:54Z</time>
      </trkpt>
      <trkpt lat="49.0374" lon="7.30837">
        <ele>333.492096</ele>
        <time>2018-05-04T04:24:54Z</time>
      </trkpt>
      <trkpt lat="49.03736" lon="7.30936">
        <ele>333.713745</ele>
        <time>2018-05-04T04:25:54Z</time>
      </trkpt>
      <trkpt lat="49.0372" lon="7.31021">
        <ele>331.544495</ele>
        <time>2018-05-04T04:26:54Z</time>
      </trkpt>
      <trkpt lat="49.03702" lon="7.31168">
        <ele>325.485199</ele>
        <time>2018-05-04T04:27:54Z</time>
      </trkpt>
      <trkpt lat="49.03664" lon="7.31279">
        <ele>325.042511</ele>
        <time>2018-05-04T04:28:54Z</time>
      </trkpt>
      <trkpt lat="49.03541" lon="7.31403">
        <ele>325.763763</ele>
        <time>2018-05-04T04:29:54Z</time>
      </trkpt>
      <trkpt lat="49.03464" lon="7.31487">
        <ele>326.502502</ele>
        <time>2018-05-04T04:30:54Z</time>
      </trkpt>
      <trkpt lat="49.03394" lon="7.31573">
        <ele>328.544464</ele>
        <time>2018-05-04T04:31:54Z</time>
      </trkpt>
      <trkpt lat="49.03333" lon="7.31717">
        <ele>335.60199</ele>
        <time>2018-05-04T04:32:54Z</time>
      </trkpt>
      <trkpt lat="49.03286" lon="7.31819">
        <ele>341.825012</ele>
        <time>2018-05-04T04:33:54Z</time>
      </trkpt>
      <trkpt lat="49.03252" lon="7.31861">
        <ele>344.997498</ele>
        <time>2018-05-04T04:34:54Z</time>
      </trkpt>
      <trkpt lat="49.03173" lon="7.31855">
        <ele>346.282501</ele>
        <time>2018-05-04T04:35:54Z</time>
      </trkpt>
      <trkpt lat="49.03139" lon="7.31845">
        <ele>345.917511</ele>
        <time>2018-05-04T04:36:54Z</time>
      </trkpt>
      <trkpt lat="49.02929" lon="7.31799">
        <ele>331.402405</ele>
        <time>2018-05-04T04:37:54Z</time>
      </trkpt>
      <trkpt lat="49.02866" lon="7.31716">
        <ele>323.47876</ele>
        <time>2018-05-04T04:38:54Z</time>
      </trkpt>
      <trkpt lat="49.02848" lon="7.3167">
        <ele>321.512482</ele>
        <time>2018-05-04T04:39:54Z</time>
      </trkpt>
      <trkpt lat="49.0282" lon="7.31693">
        <ele>319.692505</ele>
        <time>2018-05-04T04:40:54Z</time>
      </trkpt>
      <trkpt lat="49.02782" lon="7.31798">
        <ele>318.974701</ele>
        <time>2018-05-04T04:41:54Z</time>
      </trkpt>
      <trkpt lat="49.02761" lon="7.31886">
        <ele>319.907745</ele>
        <time>2018-05-04T04:42:54Z</time>
      </trkpt>
      <trkpt lat="49.02723" lon="7.32019">
        <ele>324.991577</ele>
        <time>2018-05-04T04:43:54Z</time>
      </trkpt>
      <trkpt lat="49.02696" lon="7.32132">
        <ele>333.960693</ele>
        <time>2018-05-04T04:44:54Z</time>
      </trkpt>
      <trkpt lat="49.02665" lon="7.32235">
        <ele>340.299988</ele>
        <time>2018-05-04T04:45:54Z</time>
      </trkpt>
      <trkpt lat="49.02477" lon="7.32292">
        <ele>351.932495</ele>
        <time>2018-05-04T04:46:54Z</time>
      </trkpt>
      <trkpt lat="49.02405" lon="7.32143">
        <ele>348.238739</ele>
        <time>2018-05-04T04:47:54Z</time>
      </trkpt>
      <trkpt lat="49.02308" lon="7.32102">
        <ele>351.698425</ele>
        <time>2018-05-04T04:48:54Z</time>
      </trkpt>
      <trkpt lat="49.02228" lon="7.32056">
        <ele>351.703888</ele>
        <time>2018-05-04T04:49:54Z</time>
      </trkpt>
      <trkpt lat="49.02261" lon="7.32294">
        <ele>352.80661</ele>
        <time>2018-05-04T04:50:54Z</time>
      </trkpt>
      <trkpt lat="49.02268" lon="7.32452">
        <ele>352.141174</ele>
        <time>2018-05-04T04:51:54Z</time>
      </trkpt>
      <trkpt lat="49.02233" lon="7.32546">
        <ele>351.35025</ele>
        <time>2018-05-04T04:52:54Z</time>
      </trkpt>
      <trkpt lat="49.02163" lon="7.32595">
        <ele>354.654999</ele>
        <time>2018-05-04T04:53:54Z</time>
      </trkpt>
      <trkpt lat="49.02037" lon="7.32646">
        <ele>360.5</ele>
        <time>2018-05-04T04:54:54Z</time>
      </trkpt>
      <trkpt lat="49.01947" lon="7.32773">
        <ele>367.625</ele>
        <time>2018-05-04T04:55:54Z</time>
      </trkpt>
      <trkpt lat="49.0187" lon="7.32893">
        <ele>372.087646</ele>
        <time>2018-05-04T04:56:54Z</time>
      </trkpt>
      <trkpt lat="49.01773" lon="7.33005">
        <ele>369.695007</ele>
        <time>2018-05-04T04:57:54Z</time>
      </trkpt>
      <trkpt lat="49.01713" lon="7.33156">
        <ele>367.049225</ele>
        <time>2018-05-04T04:58:54Z</time>
      </trkpt>
      <trkpt lat="49.016" lon="7.33327">
        <ele>368.500458</ele>
        <time>2018-05-04T04:59:54Z</time>
      </trkpt>
      <trkpt lat="49.0158" lon="7.33485">
        <ele>373.579102</ele>
        <time>2018-05-04T05:00:54Z</time>
      </trkpt>
      <trkpt lat="49.01503" lon="7.33626">
        <ele>373</ele>
        <time>2018-05-04T05:01:54Z</time>
      </trkpt>
      <trkpt lat="49.01496" lon="7.33649">
        <ele>373</ele>
        <time>2018-05-04T05:02:54Z</time>
      </trkpt>
      <trkpt lat="49.01504" lon="7.33683">
        <ele>373</ele>
        <time>2018-05-04T05:03:54Z</time>
      </trkpt>
      <trkpt lat="49.01448" lon="7.33667">
        <ele>372.915588</ele>
        <time>2018-05-04T05:04:54Z</time>
      </trkpt>
      <trkpt lat="49.0141" lon="7.33674">
        <ele>372.099701</ele>
        <time>2018-05-04T05:05:54Z</time>
      </trkpt>
      <trkpt lat="49.01343" lon="7.33706">
        <ele>369.859985</ele>
        <time>2018-05-04T05:07:54Z</time>
      </trkpt>
      <trkpt lat="49.01339" lon="7.33774">
        <ele>369.791199</ele>
        <time>2018-05-04T05:08:54Z</time>
      </trkpt>
      <trkpt lat="49.01343" lon="7.33801">
        <ele>369.639862</ele>
        <time>2018-05-04T05:09:54Z</time>
      </trkpt>
      <trkpt lat="49.01327" lon="7.33815">
        <ele>369.254211</ele>
        <time>2018-05-04T05:10:54Z</time>
      </trkpt>
      <trkpt lat="49.01324" lon="7.33852">
        <ele>369.028503</ele>
        <time>2018-05-04T05:11:54Z</time>
      </trkpt>
      <trkpt lat="49.01346" lon="7.33924">
        <ele>368.116425</ele>
        <time>2018-05-04T05:12:54Z</time>
      </trkpt>
      <trkpt lat="49.01333" lon="7.33953">
        <ele>367.414368</ele>
        <time>2018-05-04T05:13:54Z</time>
      </trkpt>
      <trkpt lat="49.01261" lon="7.33885">
        <ele>369</ele>
        <time>2018-05-04T05:14:54Z</time>
      </trkpt>
      <trkpt lat="49.01028" lon="7.33849">
        <ele>379.700012</ele>
        <time>2018-05-04T05:15:54Z</time>
      </trkpt>
    </trkseg>
  </trk>
</gpx>